createdAt,value
2023-06-19T00:00:14.816Z,6.70
2023-06-19T00:02:43.642Z,6.63
2023-06-19T00:05:11.475Z,5.88
2023-06-19T00:07:39.282Z,6.68
2023-06-19T00:10:07.350Z,7.13
2023-06-19T00:12:35.201Z,8.35
2023-06-19T00:15:04.055Z,7.78
2023-06-19T00:17:31.879Z,7.03
2023-06-19T00:19:59.602Z,6.00
2023-06-19T00:22:27.468Z,6.07
2023-06-19T00:24:55.268Z,5.65
2023-06-19T00:27:23.379Z,6.93
2023-06-19T00:29:54.196Z,7.32
2023-06-19T00:32:22.034Z,6.55
2023-06-19T00:34:49.857Z,7.30
2023-06-19T00:37:17.652Z,8.18
2023-06-19T00:39:45.363Z,5.82
2023-06-19T00:42:13.231Z,6.45
2023-06-19T00:44:41.304Z,6.68
2023-06-19T00:47:09.091Z,5.50
2023-06-19T00:49:36.856Z,7.43
2023-06-19T00:52:05.045Z,9.18
2023-06-19T00:54:32.850Z,9.02
2023-06-19T00:57:02.173Z,5.85
2023-06-19T00:59:30.697Z,13.05
2023-06-19T01:01:58.691Z,5.53
2023-06-19T01:04:26.789Z,7.38
2023-06-19T01:06:59.103Z,6.43
2023-06-19T01:09:34.904Z,7.60
2023-06-19T01:12:09.707Z,5.22
2023-06-19T01:14:40.689Z,6.50
2023-06-19T01:17:08.562Z,5.60
2023-06-19T01:19:36.403Z,4.72
2023-06-19T01:22:05.876Z,5.28
2023-06-19T01:24:33.644Z,11.68
2023-06-19T01:27:02.935Z,5.60
2023-06-19T01:29:30.688Z,6.32
2023-06-19T01:32:09.925Z,6.63
2023-06-19T01:34:40.012Z,6.18
2023-06-19T01:37:08.866Z,6.03
2023-06-19T01:39:38.200Z,5.80
2023-06-19T01:42:06.056Z,6.75
2023-06-19T01:44:33.900Z,6.25
2023-06-19T01:47:07.777Z,8.68
2023-06-19T01:49:35.903Z,7.20
2023-06-19T01:52:05.486Z,7.82
2023-06-19T01:54:33.289Z,5.45
2023-06-19T01:57:01.560Z,5.65
2023-06-19T01:59:29.321Z,4.88
2023-06-19T02:01:57.144Z,4.80
2023-06-19T02:04:24.914Z,5.20
2023-06-19T02:06:52.745Z,5.43
2023-06-19T02:09:20.464Z,5.95
2023-06-19T02:11:48.306Z,8.52
2023-06-19T02:14:16.070Z,5.32
2023-06-19T02:16:44.764Z,5.35
2023-06-19T02:19:12.709Z,9.88
2023-06-19T02:21:40.524Z,8.65
2023-06-19T02:24:08.447Z,7.80
2023-06-19T02:26:36.249Z,8.20
2023-06-19T02:29:04.007Z,9.13
2023-06-19T02:31:32.329Z,8.10
2023-06-19T02:34:00.135Z,6.47
2023-06-19T02:36:27.971Z,8.43
2023-06-19T02:38:55.737Z,6.57
2023-06-19T02:41:23.900Z,5.20
2023-06-19T02:43:51.715Z,6.40
2023-06-19T02:46:20.667Z,6.03
2023-06-19T02:48:48.518Z,7.38
2023-06-19T02:51:17.051Z,8.03
2023-06-19T02:53:46.199Z,5.65
2023-06-19T02:56:13.948Z,6.10
2023-06-19T02:58:42.387Z,6.93
2023-06-19T03:01:10.287Z,5.70
2023-06-19T03:03:38.940Z,7.93
2023-06-19T03:06:07.544Z,7.45
2023-06-19T03:08:36.253Z,10.73
2023-06-19T03:11:06.820Z,5.05
2023-06-19T03:13:53.889Z,8.00
2023-06-19T03:16:21.957Z,7.57
2023-06-19T03:18:53.193Z,8.25
2023-06-19T03:21:23.780Z,6.40
2023-06-19T03:23:54.335Z,5.65
2023-06-19T03:26:25.988Z,6.67
2023-06-19T03:28:55.479Z,10.57
2023-06-19T03:31:25.291Z,8.40
2023-06-19T03:33:53.531Z,5.50
2023-06-19T03:36:24.075Z,6.70
2023-06-19T03:38:55.476Z,9.13
2023-06-19T03:41:28.671Z,5.28
2023-06-19T03:43:58.588Z,6.17
2023-06-19T03:46:26.809Z,6.20
2023-06-19T03:48:55.139Z,5.63
2023-06-19T03:51:22.904Z,7.73
2023-06-19T03:53:52.170Z,10.63
2023-06-19T03:56:20.519Z,10.63
2023-06-19T03:58:49.642Z,9.50
2023-06-19T04:01:17.452Z,10.30
2023-06-19T04:03:45.297Z,6.60
2023-06-19T04:06:13.112Z,7.25
2023-06-19T04:08:41.556Z,9.85
2023-06-19T04:11:13.660Z,6.43
2023-06-19T04:13:41.667Z,6.77
2023-06-19T04:16:09.806Z,6.00
2023-06-19T04:18:38.059Z,5.63
2023-06-19T04:21:06.018Z,6.13
2023-06-19T04:23:34.195Z,8.40
2023-06-19T04:26:01.998Z,7.15
2023-06-19T04:28:29.902Z,7.00
2023-06-19T04:31:01.572Z,5.93
2023-06-19T04:33:30.287Z,7.15
2023-06-19T04:35:58.106Z,6.57
2023-06-19T04:38:25.904Z,6.40
2023-06-19T04:40:55.065Z,5.80
2023-06-19T04:43:25.754Z,7.05
2023-06-19T04:45:53.820Z,5.22
2023-06-19T04:48:25.997Z,6.82
2023-06-19T04:50:54.188Z,7.53
2023-06-19T04:53:22.494Z,7.32
2023-06-19T04:55:50.906Z,6.43
2023-06-19T04:58:18.773Z,8.27
2023-06-19T05:00:52.226Z,7.30
2023-06-19T05:03:20.546Z,5.85
2023-06-19T05:05:48.376Z,6.97
2023-06-19T05:08:16.189Z,8.00
2023-06-19T05:10:46.474Z,6.50
2023-06-19T05:13:15.202Z,7.45
2023-06-19T05:15:44.031Z,13.70
2023-06-19T05:18:11.915Z,5.65
2023-06-19T05:20:39.682Z,6.03
2023-06-19T05:23:08.786Z,7.03
2023-06-19T05:25:36.529Z,7.43
2023-06-19T05:28:06.157Z,5.97
2023-06-19T05:30:34.345Z,6.70
2023-06-19T05:33:02.333Z,6.93
2023-06-19T05:35:31.490Z,6.72
2023-06-19T05:37:59.291Z,6.18
2023-06-19T05:40:27.676Z,9.15
2023-06-19T05:42:56.860Z,8.90
2023-06-19T05:45:24.651Z,8.20
2023-06-19T05:47:52.410Z,6.68
2023-06-19T05:50:20.169Z,7.75
2023-06-19T05:52:49.008Z,7.03
2023-06-19T05:55:16.840Z,8.65
2023-06-19T05:57:44.677Z,6.07
2023-06-19T06:00:15.443Z,10.95
2023-06-19T06:02:43.354Z,6.90
2023-06-19T06:05:12.914Z,6.40
2023-06-19T06:07:41.616Z,7.20
2023-06-19T06:10:10.380Z,6.45
2023-06-19T06:12:38.401Z,6.88
2023-06-19T06:15:08.243Z,6.65
2023-06-19T06:17:36.634Z,5.93
2023-06-19T06:20:13.895Z,7.80
2023-06-19T06:22:42.318Z,8.77
2023-06-19T06:25:13.272Z,5.53
2023-06-19T06:27:42.304Z,5.35
2023-06-19T06:30:12.887Z,9.45
2023-06-19T06:32:40.828Z,7.53
2023-06-19T06:35:08.745Z,6.10
2023-06-19T06:37:36.636Z,5.03
2023-06-19T06:40:10.514Z,7.15
2023-06-19T06:42:39.416Z,5.40
2023-06-19T06:45:09.419Z,4.50
2023-06-19T06:47:37.326Z,6.93
2023-06-19T06:50:05.542Z,4.53
2023-06-19T06:52:33.525Z,5.93
2023-06-19T06:55:01.293Z,7.22
2023-06-19T06:57:29.236Z,4.32
2023-06-19T06:59:56.942Z,3.85
2023-06-19T07:02:24.871Z,4.65
2023-06-19T07:04:53.413Z,3.65
2023-06-19T07:07:22.044Z,3.40
2023-06-19T07:09:49.845Z,4.57
2023-06-19T07:12:17.620Z,7.97
2023-06-19T07:14:46.436Z,3.85
2023-06-19T07:17:14.302Z,4.25
2023-06-19T07:19:42.471Z,4.57
2023-06-19T07:22:10.220Z,3.58
2023-06-19T07:24:38.246Z,3.22
2023-06-19T07:27:06.466Z,3.90
2023-06-19T07:29:34.274Z,3.38
2023-06-19T07:32:05.154Z,3.22
2023-06-19T07:34:34.965Z,3.38
2023-06-19T07:37:03.895Z,3.05
2023-06-19T07:39:32.317Z,3.38
2023-06-19T07:42:01.192Z,4.45
2023-06-19T07:44:29.134Z,2.92
2023-06-19T07:46:56.986Z,4.15
2023-06-19T07:49:24.855Z,4.45
2023-06-19T07:51:52.577Z,3.80
2023-06-19T07:54:20.437Z,3.95
2023-06-19T07:56:48.240Z,3.05
2023-06-19T07:59:16.215Z,2.85
2023-06-19T08:01:45.083Z,3.10
2023-06-19T08:04:12.984Z,2.88
2023-06-19T08:06:40.741Z,2.65
2023-06-19T08:09:08.602Z,6.60
2023-06-19T08:11:38.388Z,3.00
2023-06-19T08:14:06.329Z,3.45
2023-06-19T08:16:34.210Z,2.70
2023-06-19T08:19:03.260Z,4.10
2023-06-19T08:21:31.503Z,2.60
2023-06-19T08:24:00.187Z,3.67
2023-06-19T08:26:28.043Z,2.63
2023-06-19T08:28:56.136Z,2.97
2023-06-19T08:31:28.310Z,2.88
2023-06-19T08:33:56.516Z,3.22
2023-06-19T08:36:25.635Z,3.03
2023-06-19T08:38:54.007Z,2.97
2023-06-19T08:41:21.782Z,3.45
2023-06-19T08:43:49.675Z,2.95
2023-06-19T08:46:20.906Z,2.67
2023-06-19T08:48:52.153Z,2.95
2023-06-19T08:51:20.056Z,2.67
2023-06-19T08:53:49.181Z,3.03
2023-06-19T08:56:16.915Z,2.45
2023-06-19T08:58:44.828Z,4.35
2023-06-19T09:01:13.533Z,2.70
2023-06-19T09:03:41.417Z,3.17
2023-06-19T09:06:09.948Z,4.85
2023-06-19T09:08:38.898Z,2.92
2023-06-19T09:11:09.112Z,4.03
2023-06-19T09:13:38.558Z,3.75
2023-06-19T09:16:08.068Z,3.85
2023-06-19T09:18:46.128Z,3.00
2023-06-19T09:21:19.494Z,4.13
2023-06-19T09:23:47.772Z,3.53
2023-06-19T09:26:17.766Z,2.85
2023-06-19T09:28:45.780Z,2.60
2023-06-19T09:31:13.771Z,3.30
2023-06-19T09:33:41.734Z,2.97
2023-06-19T09:36:09.549Z,3.50
2023-06-19T09:38:39.446Z,2.70
2023-06-19T09:41:09.851Z,3.33
2023-06-19T09:43:44.279Z,3.03
2023-06-19T09:46:13.456Z,2.65
2023-06-19T09:48:46.025Z,2.63
2023-06-19T09:51:20.807Z,3.03
2023-06-19T09:53:52.986Z,3.05
2023-06-19T09:56:23.303Z,3.33
2023-06-19T09:58:52.110Z,2.72
2023-06-19T10:01:20.325Z,2.90
2023-06-19T10:03:48.184Z,3.05
2023-06-19T10:06:17.160Z,2.53
2023-06-19T10:08:45.783Z,2.72
2023-06-19T10:11:13.763Z,3.28
2023-06-19T10:13:42.103Z,3.13
2023-06-19T10:16:23.848Z,2.40
2023-06-19T10:18:51.740Z,3.10
2023-06-19T10:21:20.373Z,2.65
2023-06-19T10:23:56.129Z,2.60
2023-06-19T10:26:36.343Z,3.20
2023-06-19T10:29:15.290Z,3.88
2023-06-19T10:31:44.082Z,2.85
2023-06-19T10:34:13.046Z,2.92
2023-06-19T10:36:41.096Z,2.63
2023-06-19T10:39:10.027Z,2.80
2023-06-19T10:41:40.893Z,2.63
2023-06-19T10:44:14.532Z,3.30
2023-06-19T10:46:42.520Z,2.50
2023-06-19T10:49:12.436Z,3.10
2023-06-19T10:51:41.346Z,2.92
2023-06-19T10:54:09.206Z,3.05
2023-06-19T10:56:37.172Z,2.83
2023-06-19T10:59:10.412Z,2.58
2023-06-19T11:01:39.653Z,3.22
2023-06-19T11:04:08.225Z,3.15
2023-06-19T11:06:37.460Z,2.47
2023-06-19T11:09:06.302Z,3.08
2023-06-19T11:11:41.030Z,2.70
2023-06-19T11:14:09.437Z,2.83
2023-06-19T11:16:42.598Z,3.22
2023-06-19T11:19:14.525Z,5.97
2023-06-19T11:21:50.034Z,2.75
2023-06-19T11:24:18.161Z,3.17
2023-06-19T11:26:53.399Z,2.75
2023-06-19T11:29:23.044Z,3.13
2023-06-19T11:31:51.599Z,2.75
2023-06-19T11:34:23.388Z,2.55
2023-06-19T11:36:52.197Z,3.25
2023-06-19T11:39:21.094Z,2.80
2023-06-19T11:41:49.241Z,2.90
2023-06-19T11:44:17.097Z,2.75
2023-06-19T11:46:45.045Z,2.70
2023-06-19T11:49:13.357Z,3.70
2023-06-19T11:51:42.029Z,4.18
2023-06-19T11:54:10.609Z,2.70
2023-06-19T11:56:39.335Z,2.83
2023-06-19T11:59:07.127Z,2.60
2023-06-19T12:01:35.550Z,2.92
2023-06-19T12:04:03.699Z,2.50
2023-06-19T12:06:32.044Z,2.63
2023-06-19T12:09:00.285Z,2.67
2023-06-19T12:11:28.067Z,2.58
2023-06-19T12:13:57.173Z,2.55
2023-06-19T12:16:25.034Z,5.55
2023-06-19T12:18:53.921Z,2.20
2023-06-19T12:21:34.108Z,2.20
2023-06-19T12:24:04.244Z,4.15
2023-06-19T12:26:32.245Z,2.50
2023-06-19T12:29:00.048Z,2.30
2023-06-19T12:31:27.901Z,2.15
2023-06-19T12:33:56.972Z,2.47
2023-06-19T12:36:26.308Z,2.90
2023-06-19T12:38:54.921Z,2.45
2023-06-19T12:41:22.705Z,3.28
2023-06-19T12:43:50.475Z,6.25
2023-06-19T12:46:18.338Z,2.38
2023-06-19T12:48:51.376Z,2.25
2023-06-19T12:51:19.420Z,7.60
2023-06-19T12:53:47.258Z,3.25
2023-06-19T12:56:15.041Z,4.10
2023-06-19T12:58:42.929Z,2.60
2023-06-19T13:01:10.757Z,2.58
2023-06-19T13:03:38.696Z,3.08
2023-06-19T13:06:06.672Z,4.68
2023-06-19T13:08:34.410Z,2.33
2023-06-19T13:11:02.257Z,2.55
2023-06-19T13:13:30.072Z,2.60
2023-06-19T13:15:57.952Z,3.05
2023-06-19T13:18:25.781Z,3.10
2023-06-19T13:20:53.624Z,2.40
2023-06-19T13:23:21.349Z,3.55
2023-06-19T13:25:49.187Z,2.15
2023-06-19T13:28:17.240Z,3.60
2023-06-19T13:30:45.106Z,2.90
2023-06-19T13:33:13.263Z,2.35
2023-06-19T13:35:41.120Z,4.07
2023-06-19T13:38:09.133Z,2.35
2023-06-19T13:40:36.961Z,2.17
2023-06-19T13:43:07.262Z,2.25
2023-06-19T13:45:35.800Z,1.77
2023-06-19T13:48:03.658Z,2.45
2023-06-19T13:50:31.522Z,2.78
2023-06-19T13:52:59.507Z,2.70
2023-06-19T13:55:27.395Z,2.65
2023-06-19T13:57:55.160Z,2.72
2023-06-19T14:00:23.211Z,2.40
2023-06-19T14:02:51.415Z,2.45
2023-06-19T14:05:19.451Z,2.20
2023-06-19T14:07:47.283Z,2.97
2023-06-19T14:10:15.165Z,2.30
2023-06-19T14:12:42.929Z,2.25
2023-06-19T14:15:10.914Z,2.40
2023-06-19T14:17:38.758Z,2.38
2023-06-19T14:20:07.282Z,2.47
2023-06-19T14:22:35.904Z,2.75
2023-06-19T14:25:03.704Z,2.78
2023-06-19T14:27:31.729Z,2.42
2023-06-19T14:29:59.542Z,2.88
2023-06-19T14:32:27.390Z,2.60
2023-06-19T14:34:55.209Z,4.03
2023-06-19T14:37:23.120Z,2.13
2023-06-19T14:39:50.890Z,3.60
2023-06-19T14:42:18.705Z,2.67
2023-06-19T14:44:46.671Z,2.92
2023-06-19T14:47:14.544Z,3.33
2023-06-19T14:49:42.328Z,2.22
2023-06-19T14:52:10.142Z,2.40
2023-06-19T14:54:38.758Z,3.13
2023-06-19T14:57:06.896Z,2.55
2023-06-19T14:59:34.661Z,2.65
2023-06-19T15:02:03.925Z,2.70
2023-06-19T15:04:32.031Z,2.83
2023-06-19T15:06:59.953Z,3.45
2023-06-19T15:09:27.983Z,2.58
2023-06-19T15:11:55.870Z,2.67
2023-06-19T15:14:23.634Z,2.72
2023-06-19T15:16:51.469Z,2.83
2023-06-19T15:19:19.302Z,2.45
2023-06-19T15:21:47.116Z,3.45
2023-06-19T15:24:15.065Z,2.50
2023-06-19T15:26:42.867Z,3.53
2023-06-19T15:29:11.506Z,2.30
2023-06-19T15:31:39.388Z,4.70
2023-06-19T15:34:07.188Z,2.75
2023-06-19T15:36:35.858Z,2.85
2023-06-19T15:39:03.678Z,2.72
2023-06-19T15:41:31.496Z,2.60
2023-06-19T15:43:59.316Z,3.38
2023-06-19T15:46:27.150Z,2.92
2023-06-19T15:48:55.688Z,2.63
2023-06-19T15:51:23.873Z,8.35
2023-06-19T15:53:51.662Z,5.30
2023-06-19T15:56:19.429Z,2.40
2023-06-19T15:58:47.146Z,2.60
2023-06-19T16:01:15.041Z,2.83
2023-06-19T16:03:42.879Z,2.97
2023-06-19T16:06:10.707Z,3.00
2023-06-19T16:08:38.412Z,5.10
2023-06-19T16:11:06.520Z,4.35
2023-06-19T16:13:34.460Z,9.85
2023-06-19T16:16:02.336Z,7.72
2023-06-19T16:18:30.178Z,2.55
2023-06-19T16:20:58.061Z,3.42
2023-06-19T16:23:25.918Z,2.38
2023-06-19T16:25:53.727Z,3.63
2023-06-19T16:28:21.582Z,3.28
2023-06-19T16:30:49.630Z,3.45
2023-06-19T16:33:18.083Z,2.50
2023-06-19T16:35:45.918Z,4.05
2023-06-19T16:38:13.654Z,3.25
2023-06-19T16:40:41.546Z,3.22
2023-06-19T16:43:10.896Z,3.42
2023-06-19T16:45:38.751Z,5.63
2023-06-19T16:48:06.528Z,2.97
2023-06-19T16:50:36.274Z,3.28
2023-06-19T16:53:04.299Z,3.05
2023-06-19T16:55:32.156Z,2.83
2023-06-19T16:57:59.897Z,3.10
2023-06-19T17:00:27.670Z,2.75
2023-06-19T17:02:57.914Z,3.53
2023-06-19T17:05:27.731Z,3.15
2023-06-19T17:07:55.742Z,3.83
2023-06-19T17:10:24.268Z,4.25
2023-06-19T17:12:52.403Z,3.50
2023-06-19T17:15:20.211Z,3.30
2023-06-19T17:17:48.084Z,4.97
2023-06-19T17:20:15.876Z,5.15
2023-06-19T17:22:43.721Z,4.68
2023-06-19T17:25:11.532Z,3.03
2023-06-19T17:27:39.364Z,2.95
2023-06-19T17:30:07.704Z,3.17
2023-06-19T17:32:35.613Z,3.58
2023-06-19T17:35:05.674Z,3.65
2023-06-19T17:37:33.467Z,4.72
2023-06-19T17:40:01.768Z,4.97
2023-06-19T17:42:29.656Z,2.78
2023-06-19T17:44:57.547Z,2.90
2023-06-19T17:47:25.442Z,3.03
2023-06-19T17:49:53.596Z,3.10
2023-06-19T17:52:21.371Z,3.03
2023-06-19T17:54:54.325Z,3.00
2023-06-19T17:57:22.295Z,2.95
2023-06-19T17:59:50.153Z,4.22
2023-06-19T18:02:19.474Z,3.88
2023-06-19T18:04:47.467Z,3.95
2023-06-19T18:07:16.670Z,7.85
2023-06-19T18:09:48.011Z,3.33
2023-06-19T18:12:16.188Z,2.75
2023-06-19T18:14:45.002Z,3.92
2023-06-19T18:17:13.098Z,3.03
2023-06-19T18:19:41.753Z,7.60
2023-06-19T18:22:09.633Z,3.95
2023-06-19T18:24:37.490Z,3.25
2023-06-19T18:27:07.544Z,3.33
2023-06-19T18:29:35.627Z,2.63
2023-06-19T18:32:03.550Z,2.97
2023-06-19T18:34:31.394Z,2.80
2023-06-19T18:36:59.227Z,4.40
2023-06-19T18:39:27.045Z,5.63
2023-06-19T18:41:55.883Z,6.40
2023-06-19T18:44:23.662Z,3.72
2023-06-19T18:46:51.423Z,3.47
2023-06-19T18:49:19.203Z,5.18
2023-06-19T18:51:47.035Z,10.77
2023-06-19T18:54:14.827Z,8.00
2023-06-19T18:56:42.681Z,4.32
2023-06-19T18:59:10.444Z,4.85
2023-06-19T19:01:38.287Z,9.60
2023-06-19T19:04:06.086Z,4.63
2023-06-19T19:06:33.830Z,4.90
2023-06-19T19:09:01.563Z,7.90
2023-06-19T19:11:29.404Z,3.75
2023-06-19T19:13:57.113Z,4.22
2023-06-19T19:16:26.069Z,4.30
2023-06-19T19:18:53.894Z,3.58
2023-06-19T19:21:21.743Z,4.38
2023-06-19T19:23:49.522Z,3.63
2023-06-19T19:26:17.303Z,3.85
2023-06-19T19:28:45.126Z,5.45
2023-06-19T19:31:13.000Z,3.65
2023-06-19T19:33:40.834Z,4.40
2023-06-19T19:36:08.857Z,3.33
2023-06-19T19:38:36.679Z,5.05
2023-06-19T19:41:04.541Z,4.72
2023-06-19T19:43:32.607Z,2.78
2023-06-19T19:46:00.526Z,3.72
2023-06-19T19:48:28.312Z,3.40
2023-06-19T19:50:57.241Z,3.67
2023-06-19T19:53:25.050Z,3.42
2023-06-19T19:55:52.830Z,4.60
2023-06-19T19:58:20.714Z,3.30
2023-06-19T20:00:50.681Z,5.07
2023-06-19T20:03:18.764Z,4.45
2023-06-19T20:05:46.558Z,3.95
2023-06-19T20:08:14.420Z,3.35
2023-06-19T20:10:44.480Z,3.38
2023-06-19T20:13:12.921Z,2.75
2023-06-19T20:15:40.762Z,3.83
2023-06-19T20:18:08.604Z,4.68
2023-06-19T20:20:36.658Z,3.45
2023-06-19T20:23:04.524Z,3.75
2023-06-19T20:25:32.300Z,3.72
2023-06-19T20:28:08.065Z,7.22
2023-06-19T20:30:36.641Z,4.13
2023-06-19T20:33:04.628Z,3.40
2023-06-19T20:35:32.430Z,3.47
2023-06-19T20:38:00.429Z,4.00
2023-06-19T20:40:28.813Z,3.40
2023-06-19T20:42:56.746Z,3.67
2023-06-19T20:45:27.187Z,4.32
2023-06-19T20:47:55.348Z,5.53
2023-06-19T20:50:23.823Z,4.25
2023-06-19T20:52:52.000Z,4.25
2023-06-19T20:55:19.766Z,3.65
2023-06-19T20:57:47.597Z,3.42
2023-06-19T21:00:15.459Z,2.92
2023-06-19T21:02:43.345Z,3.00
2023-06-19T21:05:16.657Z,3.60
2023-06-19T21:07:45.387Z,3.38
2023-06-19T21:10:13.277Z,7.78
2023-06-19T21:12:41.407Z,3.35
2023-06-19T21:15:09.742Z,5.10
2023-06-19T21:17:39.820Z,7.50
2023-06-19T21:20:10.436Z,7.00
2023-06-19T21:22:39.013Z,3.70
2023-06-19T21:25:07.357Z,3.55
2023-06-19T21:27:35.210Z,5.45
2023-06-19T21:30:03.472Z,4.38
2023-06-19T21:32:31.381Z,3.15
2023-06-19T21:34:59.295Z,3.50
2023-06-19T21:37:27.103Z,6.05
2023-06-19T21:39:54.823Z,3.33
2023-06-19T21:42:22.620Z,3.63
2023-06-19T21:44:50.401Z,4.20
2023-06-19T21:47:18.182Z,3.40
2023-06-19T21:49:46.056Z,2.88
2023-06-19T21:52:13.859Z,3.15
2023-06-19T21:54:41.595Z,4.55
2023-06-19T21:57:10.132Z,3.70
2023-06-19T21:59:37.881Z,4.05
2023-06-19T22:02:05.997Z,4.60
2023-06-19T22:04:33.772Z,3.38
2023-06-19T22:07:01.495Z,4.18
2023-06-19T22:09:30.297Z,2.70
2023-06-19T22:11:58.128Z,3.72
2023-06-19T22:14:25.930Z,3.65
2023-06-19T22:16:53.703Z,3.80
2023-06-19T22:19:21.440Z,3.67
2023-06-19T22:21:49.256Z,3.70
2023-06-19T22:24:17.034Z,4.38
2023-06-19T22:26:44.861Z,4.38
2023-06-19T22:29:14.337Z,3.40
2023-06-19T22:31:42.232Z,3.47
2023-06-19T22:34:09.959Z,3.13
2023-06-19T22:36:37.718Z,5.78
2023-06-19T22:39:05.571Z,4.90
2023-06-19T22:41:33.773Z,3.35
2023-06-19T22:44:03.461Z,3.85
2023-06-19T22:46:31.297Z,3.60
2023-06-19T22:48:59.153Z,4.27
2023-06-19T22:51:26.898Z,3.50
2023-06-19T22:53:55.016Z,4.20
2023-06-19T22:56:22.757Z,3.53
2023-06-19T22:58:50.523Z,3.30
2023-06-19T23:01:26.248Z,5.17
2023-06-19T23:03:54.172Z,4.93
2023-06-19T23:06:21.980Z,3.78
2023-06-19T23:08:50.454Z,3.80
2023-06-19T23:11:18.245Z,3.40
2023-06-19T23:13:46.086Z,4.30
2023-06-19T23:16:13.903Z,3.47
2023-06-19T23:18:41.705Z,3.17
2023-06-19T23:21:09.504Z,5.30
2023-06-19T23:23:39.047Z,6.80
2023-06-19T23:26:07.186Z,4.03
2023-06-19T23:28:34.917Z,10.87
2023-06-19T23:31:02.610Z,3.50
2023-06-19T23:33:30.336Z,4.17
2023-06-19T23:35:58.079Z,3.57
2023-06-19T23:38:26.185Z,2.90
2023-06-19T23:40:55.089Z,6.10
2023-06-19T23:43:22.908Z,5.35
2023-06-19T23:45:52.286Z,3.27
2023-06-19T23:48:20.532Z,5.23
2023-06-19T23:50:48.262Z,3.93
2023-06-19T23:53:16.072Z,4.37
2023-06-19T23:55:43.870Z,4.57
2023-06-19T23:58:11.932Z,5.10
